sensor_id;sensor_type;location;lat;lon;timestamp;P1;durP1;ratioP1;P2;durP2;ratioP2
17494;SDS011;8864;51.970;4.614;2022-07-10T00:02:18;4.25;;;1.17;;
17494;SDS011;8864;51.970;4.614;2022-07-10T00:04:46;3.40;;;1.05;;
17494;SDS011;8864;51.970;4.614;2022-07-10T00:07:13;4.72;;;1.02;;
17494;SDS011;8864;51.970;4.614;2022-07-10T00:09:39;4.03;;;1.15;;
17494;SDS011;8864;51.970;4.614;2022-07-10T00:12:06;8.20;;;1.23;;
17494;SDS011;8864;51.970;4.614;2022-07-10T00:14:33;2.00;;;0.90;;
17494;SDS011;8864;51.970;4.614;2022-07-10T00:17:00;4.25;;;1.15;;
17494;SDS011;8864;51.970;4.614;2022-07-10T00:19:27;3.08;;;1.02;;
17494;SDS011;8864;51.970;4.614;2022-07-10T00:21:55;4.88;;;1.02;;
17494;SDS011;8864;51.970;4.614;2022-07-10T00:24:22;3.40;;;1.02;;
17494;SDS011;8864;51.970;4.614;2022-07-10T00:26:49;2.70;;;1.10;;
17494;SDS011;8864;51.970;4.614;2022-07-10T00:29:15;3.65;;;1.10;;
17494;SDS011;8864;51.970;4.614;2022-07-10T00:31:42;5.00;;;1.35;;
17494;SDS011;8864;51.970;4.614;2022-07-10T00:34:09;5.80;;;1.25;;
17494;SDS011;8864;51.970;4.614;2022-07-10T00:36:37;3.85;;;1.13;;
17494;SDS011;8864;51.970;4.614;2022-07-10T00:39:05;4.13;;;1.10;;
17494;SDS011;8864;51.970;4.614;2022-07-10T00:41:32;1.95;;;0.80;;
17494;SDS011;8864;51.970;4.614;2022-07-10T00:43:59;5.70;;;0.90;;
17494;SDS011;8864;51.970;4.614;2022-07-10T00:46:27;4.32;;;0.90;;
17494;SDS011;8864;51.970;4.614;2022-07-10T00:48:55;2.35;;;1.00;;
17494;SDS011;8864;51.970;4.614;2022-07-10T00:51:24;4.57;;;1.20;;
17494;SDS011;8864;51.970;4.614;2022-07-10T00:53:52;3.30;;;0.98;;
17494;SDS011;8864;51.970;4.614;2022-07-10T00:56:25;3.38;;;0.90;;
17494;SDS011;8864;51.970;4.614;2022-07-10T00:58:53;6.30;;;1.17;;
17494;SDS011;8864;51.970;4.614;2022-07-10T01:01:20;5.45;;;1.13;;
17494;SDS011;8864;51.970;4.614;2022-07-10T01:03:48;4.05;;;1.00;;
17494;SDS011;8864;51.970;4.614;2022-07-10T01:06:15;5.00;;;1.30;;
17494;SDS011;8864;51.970;4.614;2022-07-10T01:08:43;4.80;;;1.08;;
17494;SDS011;8864;51.970;4.614;2022-07-10T01:11:11;3.55;;;0.93;;
17494;SDS011;8864;51.970;4.614;2022-07-10T01:13:42;3.40;;;1.10;;
17494;SDS011;8864;51.970;4.614;2022-07-10T01:16:09;3.08;;;1.00;;
17494;SDS011;8864;51.970;4.614;2022-07-10T01:18:36;7.38;;;1.10;;
17494;SDS011;8864;51.970;4.614;2022-07-10T01:21:05;2.78;;;0.98;;
17494;SDS011;8864;51.970;4.614;2022-07-10T01:23:32;7.43;;;1.20;;
17494;SDS011;8864;51.970;4.614;2022-07-10T01:25:59;4.32;;;0.85;;
17494;SDS011;8864;51.970;4.614;2022-07-10T01:28:27;5.47;;;1.20;;
17494;SDS011;8864;51.970;4.614;2022-07-10T01:30:56;5.68;;;1.20;;
17494;SDS011;8864;51.970;4.614;2022-07-10T01:33:22;2.92;;;0.80;;
17494;SDS011;8864;51.970;4.614;2022-07-10T01:35:49;4.57;;;1.08;;
17494;SDS011;8864;51.970;4.614;2022-07-10T01:38:17;5.32;;;1.40;;
17494;SDS011;8864;51.970;4.614;2022-07-10T01:40:44;2.88;;;1.02;;
17494;SDS011;8864;51.970;4.614;2022-07-10T01:43:11;3.63;;;1.13;;
17494;SDS011;8864;51.970;4.614;2022-07-10T01:45:38;4.05;;;1.10;;
17494;SDS011;8864;51.970;4.614;2022-07-10T01:48:05;2.72;;;0.82;;
17494;SDS011;8864;51.970;4.614;2022-07-10T01:50:32;4.85;;;1.08;;
17494;SDS011;8864;51.970;4.614;2022-07-10T01:52:59;2.33;;;0.82;;
17494;SDS011;8864;51.970;4.614;2022-07-10T01:55:27;3.35;;;0.95;;
17494;SDS011;8864;51.970;4.614;2022-07-10T01:57:54;5.90;;;1.00;;
17494;SDS011;8864;51.970;4.614;2022-07-10T02:00:21;5.70;;;1.10;;
17494;SDS011;8864;51.970;4.614;2022-07-10T02:02:48;5.50;;;1.38;;
17494;SDS011;8864;51.970;4.614;2022-07-10T02:05:29;5.80;;;1.05;;
17494;SDS011;8864;51.970;4.614;2022-07-10T02:07:56;7.05;;;0.88;;
17494;SDS011;8864;51.970;4.614;2022-07-10T02:10:24;6.68;;;1.10;;
17494;SDS011;8864;51.970;4.614;2022-07-10T02:12:52;7.15;;;0.90;;
17494;SDS011;8864;51.970;4.614;2022-07-10T02:15:19;4.47;;;1.00;;
17494;SDS011;8864;51.970;4.614;2022-07-10T02:17:46;4.57;;;1.10;;
17494;SDS011;8864;51.970;4.614;2022-07-10T02:20:13;6.53;;;0.80;;
17494;SDS011;8864;51.970;4.614;2022-07-10T02:22:39;4.47;;;1.00;;
17494;SDS011;8864;51.970;4.614;2022-07-10T02:25:06;2.53;;;0.95;;
17494;SDS011;8864;51.970;4.614;2022-07-10T02:27:34;6.13;;;0.90;;
17494;SDS011;8864;51.970;4.614;2022-07-10T02:30:02;4.60;;;1.10;;
17494;SDS011;8864;51.970;4.614;2022-07-10T02:32:29;3.60;;;0.85;;
17494;SDS011;8864;51.970;4.614;2022-07-10T02:34:56;2.83;;;0.90;;
17494;SDS011;8864;51.970;4.614;2022-07-10T02:37:23;3.50;;;1.00;;
17494;SDS011;8864;51.970;4.614;2022-07-10T02:39:50;3.20;;;0.70;;
17494;SDS011;8864;51.970;4.614;2022-07-10T02:42:17;4.20;;;0.88;;
17494;SDS011;8864;51.970;4.614;2022-07-10T02:44:43;5.03;;;1.00;;
17494;SDS011;8864;51.970;4.614;2022-07-10T02:47:12;2.47;;;0.95;;
17494;SDS011;8864;51.970;4.614;2022-07-10T02:49:38;4.03;;;0.82;;
17494;SDS011;8864;51.970;4.614;2022-07-10T02:52:05;3.25;;;1.10;;
17494;SDS011;8864;51.970;4.614;2022-07-10T02:54:32;2.25;;;0.80;;
17494;SDS011;8864;51.970;4.614;2022-07-10T02:56:59;5.30;;;1.00;;
17494;SDS011;8864;51.970;4.614;2022-07-10T02:59:26;2.42;;;0.80;;
17494;SDS011;8864;51.970;4.614;2022-07-10T03:01:53;5.18;;;1.00;;
17494;SDS011;8864;51.970;4.614;2022-07-10T03:04:21;3.50;;;0.73;;
17494;SDS011;8864;51.970;4.614;2022-07-10T03:06:47;5.75;;;1.25;;
17494;SDS011;8864;51.970;4.614;2022-07-10T03:09:14;1.88;;;0.73;;
17494;SDS011;8864;51.970;4.614;2022-07-10T03:11:41;2.38;;;0.80;;
17494;SDS011;8864;51.970;4.614;2022-07-10T03:14:08;4.47;;;1.00;;
17494;SDS011;8864;51.970;4.614;2022-07-10T03:16:34;2.47;;;0.73;;
17494;SDS011;8864;51.970;4.614;2022-07-10T03:19:01;3.85;;;0.70;;
17494;SDS011;8864;51.970;4.614;2022-07-10T03:21:30;2.83;;;1.08;;
17494;SDS011;8864;51.970;4.614;2022-07-10T03:23:56;3.65;;;0.90;;
17494;SDS011;8864;51.970;4.614;2022-07-10T03:26:23;2.97;;;0.90;;
17494;SDS011;8864;51.970;4.614;2022-07-10T03:28:50;2.88;;;0.80;;
17494;SDS011;8864;51.970;4.614;2022-07-10T03:31:17;3.15;;;0.82;;
17494;SDS011;8864;51.970;4.614;2022-07-10T03:33:44;4.82;;;1.00;;
17494;SDS011;8864;51.970;4.614;2022-07-10T03:36:10;1.42;;;0.70;;
17494;SDS011;8864;51.970;4.614;2022-07-10T03:38:39;3.88;;;0.95;;
17494;SDS011;8864;51.970;4.614;2022-07-10T03:41:06;3.05;;;1.10;;
17494;SDS011;8864;51.970;4.614;2022-07-10T03:43:33;2.15;;;1.05;;
17494;SDS011;8864;51.970;4.614;2022-07-10T03:46:00;3.47;;;1.02;;
17494;SDS011;8864;51.970;4.614;2022-07-10T03:48:27;6.18;;;1.10;;
17494;SDS011;8864;51.970;4.614;2022-07-10T03:50:53;3.70;;;0.70;;
17494;SDS011;8864;51.970;4.614;2022-07-10T03:53:20;3.90;;;0.75;;
17494;SDS011;8864;51.970;4.614;2022-07-10T03:55:48;3.72;;;1.27;;
17494;SDS011;8864;51.970;4.614;2022-07-10T03:58:15;3.03;;;0.90;;
17494;SDS011;8864;51.970;4.614;2022-07-10T04:00:41;2.50;;;0.90;;
17494;SDS011;8864;51.970;4.614;2022-07-10T04:03:08;3.78;;;0.85;;
17494;SDS011;8864;51.970;4.614;2022-07-10T04:05:35;4.10;;;1.17;;
17494;SDS011;8864;51.970;4.614;2022-07-10T04:08:02;3.67;;;1.00;;
17494;SDS011;8864;51.970;4.614;2022-07-10T04:10:30;4.07;;;1.00;;
17494;SDS011;8864;51.970;4.614;2022-07-10T04:12:59;10.10;;;1.45;;
17494;SDS011;8864;51.970;4.614;2022-07-10T04:15:26;3.03;;;0.90;;
17494;SDS011;8864;51.970;4.614;2022-07-10T04:17:53;4.88;;;0.90;;
17494;SDS011;8864;51.970;4.614;2022-07-10T04:20:20;2.70;;;0.82;;
17494;SDS011;8864;51.970;4.614;2022-07-10T04:22:48;4.53;;;0.90;;
17494;SDS011;8864;51.970;4.614;2022-07-10T04:25:15;5.30;;;0.88;;
17494;SDS011;8864;51.970;4.614;2022-07-10T04:27:42;2.83;;;0.90;;
17494;SDS011;8864;51.970;4.614;2022-07-10T04:30:10;5.10;;;1.00;;
17494;SDS011;8864;51.970;4.614;2022-07-10T04:32:37;1.73;;;0.90;;
17494;SDS011;8864;51.970;4.614;2022-07-10T04:35:04;4.47;;;0.95;;
17494;SDS011;8864;51.970;4.614;2022-07-10T04:37:32;4.88;;;1.10;;
17494;SDS011;8864;51.970;4.614;2022-07-10T04:39:59;3.22;;;1.05;;
17494;SDS011;8864;51.970;4.614;2022-07-10T04:42:27;5.60;;;1.00;;
17494;SDS011;8864;51.970;4.614;2022-07-10T04:44:53;6.82;;;0.80;;
17494;SDS011;8864;51.970;4.614;2022-07-10T04:47:21;3.42;;;0.93;;
17494;SDS011;8864;51.970;4.614;2022-07-10T04:49:48;1.90;;;0.98;;
17494;SDS011;8864;51.970;4.614;2022-07-10T04:52:15;8.05;;;1.30;;
17494;SDS011;8864;51.970;4.614;2022-07-10T04:54:42;2.25;;;0.70;;
17494;SDS011;8864;51.970;4.614;2022-07-10T04:57:09;2.40;;;0.90;;
17494;SDS011;8864;51.970;4.614;2022-07-10T04:59:35;6.90;;;0.98;;
17494;SDS011;8864;51.970;4.614;2022-07-10T05:02:02;4.00;;;1.05;;
17494;SDS011;8864;51.970;4.614;2022-07-10T05:04:31;4.55;;;1.00;;
17494;SDS011;8864;51.970;4.614;2022-07-10T05:06:58;4.45;;;1.00;;
17494;SDS011;8864;51.970;4.614;2022-07-10T05:09:24;6.50;;;1.00;;
17494;SDS011;8864;51.970;4.614;2022-07-10T05:11:51;2.00;;;0.70;;
17494;SDS011;8864;51.970;4.614;2022-07-10T05:14:18;6.22;;;0.98;;
17494;SDS011;8864;51.970;4.614;2022-07-10T05:16:45;3.85;;;0.98;;
17494;SDS011;8864;51.970;4.614;2022-07-10T05:19:11;5.78;;;0.88;;
17494;SDS011;8864;51.970;4.614;2022-07-10T05:21:39;6.35;;;1.15;;
17494;SDS011;8864;51.970;4.614;2022-07-10T05:24:07;3.25;;;1.00;;
17494;SDS011;8864;51.970;4.614;2022-07-10T05:26:34;2.58;;;0.90;;
17494;SDS011;8864;51.970;4.614;2022-07-10T05:29:02;3.72;;;0.90;;
17494;SDS011;8864;51.970;4.614;2022-07-10T05:31:28;4.50;;;0.90;;
17494;SDS011;8864;51.970;4.614;2022-07-10T05:33:55;7.65;;;1.10;;
17494;SDS011;8864;51.970;4.614;2022-07-10T05:36:22;7.50;;;1.10;;
17494;SDS011;8864;51.970;4.614;2022-07-10T05:38:50;3.78;;;0.93;;
17494;SDS011;8864;51.970;4.614;2022-07-10T05:41:17;4.20;;;1.20;;
17494;SDS011;8864;51.970;4.614;2022-07-10T05:43:44;4.07;;;1.10;;
17494;SDS011;8864;51.970;4.614;2022-07-10T05:46:11;4.88;;;1.13;;
17494;SDS011;8864;51.970;4.614;2022-07-10T05:48:38;1.55;;;0.73;;
17494;SDS011;8864;51.970;4.614;2022-07-10T05:51:04;5.32;;;1.23;;
17494;SDS011;8864;51.970;4.614;2022-07-10T05:53:31;2.60;;;0.85;;
17494;SDS011;8864;51.970;4.614;2022-07-10T05:56:00;2.05;;;0.88;;
17494;SDS011;8864;51.970;4.614;2022-07-10T05:58:27;2.75;;;0.75;;
17494;SDS011;8864;51.970;4.614;2022-07-10T06:00:54;1.88;;;0.88;;
17494;SDS011;8864;51.970;4.614;2022-07-10T06:03:21;5.22;;;1.10;;
17494;SDS011;8864;51.970;4.614;2022-07-10T06:05:48;3.65;;;1.00;;
17494;SDS011;8864;51.970;4.614;2022-07-10T06:08:15;5.50;;;0.80;;
17494;SDS011;8864;51.970;4.614;2022-07-10T06:10:42;5.35;;;1.20;;
17494;SDS011;8864;51.970;4.614;2022-07-10T06:13:10;6.65;;;1.27;;
17494;SDS011;8864;51.970;4.614;2022-07-10T06:15:37;5.13;;;1.20;;
17494;SDS011;8864;51.970;4.614;2022-07-10T06:18:04;4.47;;;1.20;;
17494;SDS011;8864;51.970;4.614;2022-07-10T06:20:31;5.57;;;1.00;;
17494;SDS011;8864;51.970;4.614;2022-07-10T06:22:58;4.47;;;0.90;;
17494;SDS011;8864;51.970;4.614;2022-07-10T06:25:25;5.72;;;1.08;;
17494;SDS011;8864;51.970;4.614;2022-07-10T06:27:51;4.47;;;1.33;;
17494;SDS011;8864;51.970;4.614;2022-07-10T06:30:19;7.95;;;1.08;;
17494;SDS011;8864;51.970;4.614;2022-07-10T06:32:46;8.88;;;1.30;;
17494;SDS011;8864;51.970;4.614;2022-07-10T06:35:13;4.60;;;1.27;;
17494;SDS011;8864;51.970;4.614;2022-07-10T06:37:40;5.55;;;1.15;;
17494;SDS011;8864;51.970;4.614;2022-07-10T06:40:09;5.25;;;1.00;;
17494;SDS011;8864;51.970;4.614;2022-07-10T06:42:37;7.38;;;1.50;;
17494;SDS011;8864;51.970;4.614;2022-07-10T06:45:05;11.60;;;2.13;;
17494;SDS011;8864;51.970;4.614;2022-07-10T06:47:33;12.00;;;1.90;;
17494;SDS011;8864;51.970;4.614;2022-07-10T06:50:18;6.25;;;1.23;;
17494;SDS011;8864;51.970;4.614;2022-07-10T06:52:46;6.40;;;1.33;;
17494;SDS011;8864;51.970;4.614;2022-07-10T06:55:13;3.67;;;1.17;;
17494;SDS011;8864;51.970;4.614;2022-07-10T06:57:41;8.15;;;1.02;;
17494;SDS011;8864;51.970;4.614;2022-07-10T07:00:08;3.88;;;1.15;;
17494;SDS011;8864;51.970;4.614;2022-07-10T07:02:37;4.32;;;1.10;;
17494;SDS011;8864;51.970;4.614;2022-07-10T07:05:05;6.25;;;1.25;;
17494;SDS011;8864;51.970;4.614;2022-07-10T07:07:32;4.50;;;1.00;;
17494;SDS011;8864;51.970;4.614;2022-07-10T07:09:59;3.72;;;1.13;;
17494;SDS011;8864;51.970;4.614;2022-07-10T07:12:26;11.98;;;1.20;;
17494;SDS011;8864;51.970;4.614;2022-07-10T07:14:53;13.40;;;2.45;;
17494;SDS011;8864;51.970;4.614;2022-07-10T07:17:20;11.82;;;2.45;;
17494;SDS011;8864;51.970;4.614;2022-07-10T07:19:52;13.98;;;2.33;;
17494;SDS011;8864;51.970;4.614;2022-07-10T07:22:39;6.40;;;1.90;;
17494;SDS011;8864;51.970;4.614;2022-07-10T07:25:23;10.98;;;2.08;;
17494;SDS011;8864;51.970;4.614;2022-07-10T07:27:50;8.60;;;1.70;;
17494;SDS011;8864;51.970;4.614;2022-07-10T07:30:17;4.55;;;1.30;;
17494;SDS011;8864;51.970;4.614;2022-07-10T07:32:44;5.60;;;1.25;;
17494;SDS011;8864;51.970;4.614;2022-07-10T07:35:14;7.93;;;1.30;;
17494;SDS011;8864;51.970;4.614;2022-07-10T07:37:42;8.77;;;1.45;;
17494;SDS011;8864;51.970;4.614;2022-07-10T07:40:12;5.20;;;1.13;;
17494;SDS011;8864;51.970;4.614;2022-07-10T07:42:50;7.45;;;1.10;;
17494;SDS011;8864;51.970;4.614;2022-07-10T07:45:18;6.53;;;1.27;;
17494;SDS011;8864;51.970;4.614;2022-07-10T07:47:46;5.55;;;1.17;;
17494;SDS011;8864;51.970;4.614;2022-07-10T07:50:16;2.30;;;0.90;;
17494;SDS011;8864;51.970;4.614;2022-07-10T07:52:44;4.70;;;1.38;;
17494;SDS011;8864;51.970;4.614;2022-07-10T07:55:12;2.72;;;0.85;;
17494;SDS011;8864;51.970;4.614;2022-07-10T07:57:40;7.03;;;1.10;;
17494;SDS011;8864;51.970;4.614;2022-07-10T08:00:08;5.78;;;1.35;;
17494;SDS011;8864;51.970;4.614;2022-07-10T08:02:36;3.30;;;1.00;;
17494;SDS011;8864;51.970;4.614;2022-07-10T08:05:03;8.13;;;1.05;;
17494;SDS011;8864;51.970;4.614;2022-07-10T08:07:35;4.13;;;1.38;;
17494;SDS011;8864;51.970;4.614;2022-07-10T08:10:03;7.22;;;1.17;;
17494;SDS011;8864;51.970;4.614;2022-07-10T08:12:31;3.53;;;0.80;;
17494;SDS011;8864;51.970;4.614;2022-07-10T08:14:58;4.25;;;0.90;;
17494;SDS011;8864;51.970;4.614;2022-07-10T08:17:25;3.88;;;1.15;;
17494;SDS011;8864;51.970;4.614;2022-07-10T08:19:52;3.50;;;1.05;;
17494;SDS011;8864;51.970;4.614;2022-07-10T08:22:19;4.70;;;1.00;;
17494;SDS011;8864;51.970;4.614;2022-07-10T08:24:47;8.15;;;0.93;;
17494;SDS011;8864;51.970;4.614;2022-07-10T08:27:14;7.25;;;1.00;;
17494;SDS011;8864;51.970;4.614;2022-07-10T08:29:41;3.80;;;0.90;;
17494;SDS011;8864;51.970;4.614;2022-07-10T08:32:08;7.85;;;1.33;;
17494;SDS011;8864;51.970;4.614;2022-07-10T08:34:35;5.10;;;1.20;;
17494;SDS011;8864;51.970;4.614;2022-07-10T08:37:02;3.72;;;1.13;;
17494;SDS011;8864;51.970;4.614;2022-07-10T08:39:30;1.90;;;0.63;;
17494;SDS011;8864;51.970;4.614;2022-07-10T08:41:58;4.13;;;1.17;;
17494;SDS011;8864;51.970;4.614;2022-07-10T08:44:25;6.45;;;1.42;;
17494;SDS011;8864;51.970;4.614;2022-07-10T08:46:53;6.32;;;0.98;;
17494;SDS011;8864;51.970;4.614;2022-07-10T08:49:21;5.03;;;0.90;;
17494;SDS011;8864;51.970;4.614;2022-07-10T08:51:53;5.93;;;0.95;;
17494;SDS011;8864;51.970;4.614;2022-07-10T08:54:24;3.33;;;0.90;;
17494;SDS011;8864;51.970;4.614;2022-07-10T08:56:53;1.38;;;0.80;;
17494;SDS011;8864;51.970;4.614;2022-07-10T08:59:23;1.98;;;0.75;;
17494;SDS011;8864;51.970;4.614;2022-07-10T09:01:50;3.30;;;1.00;;
17494;SDS011;8864;51.970;4.614;2022-07-10T09:04:19;2.60;;;0.60;;
17494;SDS011;8864;51.970;4.614;2022-07-10T09:06:47;3.80;;;0.80;;
17494;SDS011;8864;51.970;4.614;2022-07-10T09:09:14;1.55;;;0.60;;
17494;SDS011;8864;51.970;4.614;2022-07-10T09:11:41;3.55;;;0.80;;
17494;SDS011;8864;51.970;4.614;2022-07-10T09:14:08;4.18;;;0.80;;
17494;SDS011;8864;51.970;4.614;2022-07-10T09:16:38;7.47;;;0.90;;
17494;SDS011;8864;51.970;4.614;2022-07-10T09:19:16;6.40;;;1.10;;
17494;SDS011;8864;51.970;4.614;2022-07-10T09:21:45;4.43;;;0.90;;
17494;SDS011;8864;51.970;4.614;2022-07-10T09:24:12;3.05;;;0.95;;
17494;SDS011;8864;51.970;4.614;2022-07-10T09:26:42;3.92;;;0.90;;
17494;SDS011;8864;51.970;4.614;2022-07-10T09:29:10;3.03;;;0.90;;
17494;SDS011;8864;51.970;4.614;2022-07-10T09:31:52;1.85;;;0.70;;
17494;SDS011;8864;51.970;4.614;2022-07-10T09:34:36;3.15;;;0.68;;
17494;SDS011;8864;51.970;4.614;2022-07-10T09:37:16;1.80;;;0.77;;
17494;SDS011;8864;51.970;4.614;2022-07-10T09:39:51;2.53;;;0.65;;
17494;SDS011;8864;51.970;4.614;2022-07-10T09:42:24;1.92;;;0.70;;
17494;SDS011;8864;51.970;4.614;2022-07-10T09:45:12;2.83;;;0.82;;
17494;SDS011;8864;51.970;4.614;2022-07-10T09:47:45;2.13;;;0.82;;
17494;SDS011;8864;51.970;4.614;2022-07-10T09:50:20;2.50;;;0.73;;
17494;SDS011;8864;51.970;4.614;2022-07-10T09:52:49;2.13;;;0.60;;
17494;SDS011;8864;51.970;4.614;2022-07-10T09:55:18;3.08;;;0.80;;
17494;SDS011;8864;51.970;4.614;2022-07-10T09:57:47;1.58;;;0.75;;
17494;SDS011;8864;51.970;4.614;2022-07-10T10:00:21;3.63;;;0.90;;
17494;SDS011;8864;51.970;4.614;2022-07-10T10:02:52;2.75;;;0.77;;
17494;SDS011;8864;51.970;4.614;2022-07-10T10:05:21;1.13;;;0.70;;
17494;SDS011;8864;51.970;4.614;2022-07-10T10:08:01;2.53;;;0.70;;
17494;SDS011;8864;51.970;4.614;2022-07-10T10:10:37;0.85;;;0.50;;
17494;SDS011;8864;51.970;4.614;2022-07-10T10:13:10;1.77;;;0.70;;
17494;SDS011;8864;51.970;4.614;2022-07-10T10:15:37;2.58;;;0.77;;
17494;SDS011;8864;51.970;4.614;2022-07-10T10:18:06;1.30;;;0.50;;
17494;SDS011;8864;51.970;4.614;2022-07-10T10:20:33;1.45;;;0.70;;
17494;SDS011;8864;51.970;4.614;2022-07-10T10:23:04;1.83;;;0.70;;
17494;SDS011;8864;51.970;4.614;2022-07-10T10:25:31;1.70;;;0.65;;
17494;SDS011;8864;51.970;4.614;2022-07-10T10:27:59;2.03;;;0.63;;
17494;SDS011;8864;51.970;4.614;2022-07-10T10:30:28;1.98;;;0.70;;
17494;SDS011;8864;51.970;4.614;2022-07-10T10:32:56;1.17;;;0.63;;
17494;SDS011;8864;51.970;4.614;2022-07-10T10:35:44;1.85;;;0.50;;
17494;SDS011;8864;51.970;4.614;2022-07-10T10:38:12;0.85;;;0.40;;
17494;SDS011;8864;51.970;4.614;2022-07-10T10:40:39;2.15;;;0.60;;
17494;SDS011;8864;51.970;4.614;2022-07-10T10:43:16;2.90;;;0.68;;
17494;SDS011;8864;51.970;4.614;2022-07-10T10:45:44;2.15;;;0.80;;
17494;SDS011;8864;51.970;4.614;2022-07-10T10:48:12;0.55;;;0.45;;
17494;SDS011;8864;51.970;4.614;2022-07-10T10:50:40;4.78;;;0.60;;
17494;SDS011;8864;51.970;4.614;2022-07-10T10:53:16;3.92;;;0.50;;
17494;SDS011;8864;51.970;4.614;2022-07-10T10:58:50;1.55;;;0.60;;
17494;SDS011;8864;51.970;4.614;2022-07-10T11:01:24;1.50;;;0.60;;
17494;SDS011;8864;51.970;4.614;2022-07-10T11:06:42;1.38;;;0.60;;
17494;SDS011;8864;51.970;4.614;2022-07-10T11:09:25;0.80;;;0.50;;
17494;SDS011;8864;51.970;4.614;2022-07-10T11:12:00;1.27;;;0.57;;
17494;SDS011;8864;51.970;4.614;2022-07-10T11:14:30;2.22;;;0.65;;
17494;SDS011;8864;51.970;4.614;2022-07-10T11:16:57;2.28;;;0.50;;
17494;SDS011;8864;51.970;4.614;2022-07-10T11:19:25;1.48;;;0.60;;
17494;SDS011;8864;51.970;4.614;2022-07-10T11:25:06;1.48;;;0.68;;
17494;SDS011;8864;51.970;4.614;2022-07-10T11:27:54;1.58;;;0.60;;
17494;SDS011;8864;51.970;4.614;2022-07-10T11:30:42;1.80;;;0.55;;
17494;SDS011;8864;51.970;4.614;2022-07-10T11:33:13;0.93;;;0.45;;
17494;SDS011;8864;51.970;4.614;2022-07-10T11:35:40;2.55;;;0.70;;
17494;SDS011;8864;51.970;4.614;2022-07-10T11:38:10;0.50;;;0.40;;
17494;SDS011;8864;51.970;4.614;2022-07-10T11:40:38;1.27;;;0.55;;
17494;SDS011;8864;51.970;4.614;2022-07-10T11:43:05;1.10;;;0.40;;
17494;SDS011;8864;51.970;4.614;2022-07-10T11:45:34;1.00;;;0.52;;
17494;SDS011;8864;51.970;4.614;2022-07-10T11:48:03;1.13;;;0.55;;
17494;SDS011;8864;51.970;4.614;2022-07-10T11:50:34;0.70;;;0.50;;
17494;SDS011;8864;51.970;4.614;2022-07-10T11:53:01;2.08;;;0.88;;
17494;SDS011;8864;51.970;4.614;2022-07-10T11:55:29;1.30;;;0.50;;
17494;SDS011;8864;51.970;4.614;2022-07-10T11:58:11;0.95;;;0.47;;
17494;SDS011;8864;51.970;4.614;2022-07-10T12:00:39;0.60;;;0.40;;
17494;SDS011;8864;51.970;4.614;2022-07-10T12:03:16;0.80;;;0.50;;
17494;SDS011;8864;51.970;4.614;2022-07-10T12:05:44;1.42;;;0.50;;
17494;SDS011;8864;51.970;4.614;2022-07-10T12:08:12;2.33;;;0.52;;
17494;SDS011;8864;51.970;4.614;2022-07-10T12:10:39;1.92;;;0.43;;
17494;SDS011;8864;51.970;4.614;2022-07-10T12:13:10;1.27;;;0.47;;
17494;SDS011;8864;51.970;4.614;2022-07-10T12:15:38;0.57;;;0.50;;
17494;SDS011;8864;51.970;4.614;2022-07-10T12:18:06;0.90;;;0.40;;
17494;SDS011;8864;51.970;4.614;2022-07-10T12:20:34;0.85;;;0.47;;
17494;SDS011;8864;51.970;4.614;2022-07-10T12:23:02;0.45;;;0.40;;
17494;SDS011;8864;51.970;4.614;2022-07-10T12:25:30;0.98;;;0.40;;
17494;SDS011;8864;51.970;4.614;2022-07-10T12:27:57;0.28;;;0.28;;
17494;SDS011;8864;51.970;4.614;2022-07-10T12:30:25;1.30;;;0.50;;
17494;SDS011;8864;51.970;4.614;2022-07-10T12:33:06;0.70;;;0.50;;
17494;SDS011;8864;51.970;4.614;2022-07-10T12:35:44;1.00;;;0.60;;
17494;SDS011;8864;51.970;4.614;2022-07-10T12:38:18;0.77;;;0.50;;
17494;SDS011;8864;51.970;4.614;2022-07-10T12:40:46;0.60;;;0.38;;
17494;SDS011;8864;51.970;4.614;2022-07-10T12:43:12;0.60;;;0.30;;
17494;SDS011;8864;51.970;4.614;2022-07-10T12:48:41;0.80;;;0.38;;
17494;SDS011;8864;51.970;4.614;2022-07-10T12:51:19;0.70;;;0.40;;
17494;SDS011;8864;51.970;4.614;2022-07-10T12:53:47;0.60;;;0.50;;
17494;SDS011;8864;51.970;4.614;2022-07-10T12:56:25;0.70;;;0.40;;
17494;SDS011;8864;51.970;4.614;2022-07-10T12:58:56;0.88;;;0.38;;
17494;SDS011;8864;51.970;4.614;2022-07-10T13:01:25;0.88;;;0.32;;
17494;SDS011;8864;51.970;4.614;2022-07-10T13:03:59;0.55;;;0.40;;
17494;SDS011;8864;51.970;4.614;2022-07-10T13:06:27;1.02;;;0.47;;
17494;SDS011;8864;51.970;4.614;2022-07-10T13:08:55;0.93;;;0.57;;
17494;SDS011;8864;51.970;4.614;2022-07-10T13:11:22;0.85;;;0.50;;
17494;SDS011;8864;51.970;4.614;2022-07-10T13:13:49;0.20;;;0.20;;
17494;SDS011;8864;51.970;4.614;2022-07-10T13:16:16;1.48;;;0.60;;
17494;SDS011;8864;51.970;4.614;2022-07-10T13:18:45;2.05;;;0.20;;
17494;SDS011;8864;51.970;4.614;2022-07-10T13:21:11;1.05;;;0.40;;
17494;SDS011;8864;51.970;4.614;2022-07-10T13:23:38;0.73;;;0.40;;
17494;SDS011;8864;51.970;4.614;2022-07-10T13:26:07;1.52;;;0.50;;
17494;SDS011;8864;51.970;4.614;2022-07-10T13:28:35;0.40;;;0.40;;
17494;SDS011;8864;51.970;4.614;2022-07-10T13:31:01;0.40;;;0.35;;
17494;SDS011;8864;51.970;4.614;2022-07-10T13:33:28;0.32;;;0.32;;
17494;SDS011;8864;51.970;4.614;2022-07-10T13:35:59;1.05;;;0.60;;
17494;SDS011;8864;51.970;4.614;2022-07-10T13:38:27;1.80;;;0.70;;
17494;SDS011;8864;51.970;4.614;2022-07-10T13:40:54;0.75;;;0.38;;
17494;SDS011;8864;51.970;4.614;2022-07-10T13:43:21;0.60;;;0.40;;
17494;SDS011;8864;51.970;4.614;2022-07-10T13:45:52;1.75;;;0.43;;
17494;SDS011;8864;51.970;4.614;2022-07-10T13:48:19;0.50;;;0.40;;
17494;SDS011;8864;51.970;4.614;2022-07-10T13:50:45;0.45;;;0.30;;
17494;SDS011;8864;51.970;4.614;2022-07-10T13:53:14;0.40;;;0.30;;
17494;SDS011;8864;51.970;4.614;2022-07-10T13:55:41;0.98;;;0.43;;
17494;SDS011;8864;51.970;4.614;2022-07-10T13:58:08;0.30;;;0.30;;
17494;SDS011;8864;51.970;4.614;2022-07-10T14:00:35;0.50;;;0.32;;
17494;SDS011;8864;51.970;4.614;2022-07-10T14:03:02;0.47;;;0.47;;
17494;SDS011;8864;51.970;4.614;2022-07-10T14:05:30;1.00;;;0.50;;
17494;SDS011;8864;51.970;4.614;2022-07-10T14:07:57;0.75;;;0.30;;
17494;SDS011;8864;51.970;4.614;2022-07-10T14:10:26;0.40;;;0.30;;
17494;SDS011;8864;51.970;4.614;2022-07-10T14:12:53;0.25;;;0.25;;
17494;SDS011;8864;51.970;4.614;2022-07-10T14:15:20;0.32;;;0.32;;
17494;SDS011;8864;51.970;4.614;2022-07-10T14:17:47;0.55;;;0.40;;
17494;SDS011;8864;51.970;4.614;2022-07-10T14:20:14;0.28;;;0.20;;
17494;SDS011;8864;51.970;4.614;2022-07-10T14:22:42;1.95;;;0.40;;
17494;SDS011;8864;51.970;4.614;2022-07-10T14:25:11;0.43;;;0.30;;
17494;SDS011;8864;51.970;4.614;2022-07-10T14:27:39;0.85;;;0.50;;
17494;SDS011;8864;51.970;4.614;2022-07-10T14:30:07;1.17;;;0.40;;
17494;SDS011;8864;51.970;4.614;2022-07-10T14:32:34;0.20;;;0.20;;
17494;SDS011;8864;51.970;4.614;2022-07-10T14:35:01;0.68;;;0.38;;
17494;SDS011;8864;51.970;4.614;2022-07-10T14:37:28;0.93;;;0.50;;
17494;SDS011;8864;51.970;4.614;2022-07-10T14:39:55;0.68;;;0.40;;
17494;SDS011;8864;51.970;4.614;2022-07-10T14:42:22;0.65;;;0.50;;
17494;SDS011;8864;51.970;4.614;2022-07-10T14:44:50;0.77;;;0.50;;
17494;SDS011;8864;51.970;4.614;2022-07-10T14:47:16;0.90;;;0.45;;
17494;SDS011;8864;51.970;4.614;2022-07-10T14:49:43;0.47;;;0.30;;
17494;SDS011;8864;51.970;4.614;2022-07-10T14:52:11;3.45;;;0.52;;
17494;SDS011;8864;51.970;4.614;2022-07-10T14:54:38;0.32;;;0.32;;
17494;SDS011;8864;51.970;4.614;2022-07-10T14:57:06;0.45;;;0.30;;
17494;SDS011;8864;51.970;4.614;2022-07-10T14:59:32;0.85;;;0.40;;
17494;SDS011;8864;51.970;4.614;2022-07-10T15:02:00;0.90;;;0.40;;
17494;SDS011;8864;51.970;4.614;2022-07-10T15:04:27;0.30;;;0.30;;
17494;SDS011;8864;51.970;4.614;2022-07-10T15:06:57;0.45;;;0.35;;
17494;SDS011;8864;51.970;4.614;2022-07-10T15:09:24;0.73;;;0.50;;
17494;SDS011;8864;51.970;4.614;2022-07-10T15:11:51;0.32;;;0.32;;
17494;SDS011;8864;51.970;4.614;2022-07-10T15:14:18;0.40;;;0.35;;
17494;SDS011;8864;51.970;4.614;2022-07-10T15:16:46;0.35;;;0.35;;
17494;SDS011;8864;51.970;4.614;2022-07-10T15:19:14;1.05;;;0.30;;
17494;SDS011;8864;51.970;4.614;2022-07-10T15:21:41;1.08;;;0.40;;